Time;durP1;ratioP1;P1;durP2;ratioP2;P2;SDS_P1;SDS_P2;PMS_P1;PMS_P2;Temp;Humidity;BMP_temperature;BMP_pressure;BME280_temperature;BME280_humidity;BME280_pressure;Samples;Min_cycle;Max_cycle;Signal;HPM_P1;HPM_P2
2021/04/14 00:01:48;;;;;;;6.68;2.83;;;;;;;7.78;100.00;92820.38;5018290;28;20539;-94
2021/04/14 00:04:14;;;;;;;6.68;3.33;;;;;;;7.77;100.00;92824.69;5014130;28;20049;-94
2021/04/14 00:06:41;;;;;;;;;;;;;;;7.74;100.00;92820.78;5019716;28;20096;-94
2021/04/14 00:09:07;;;;;;;2.47;1.55;;;;;;;7.47;100.00;92797.84;5014510;28;19921;-94
2021/04/14 00:11:33;;;;;;;;;;;;;;;7.44;100.00;92802.56;5020670;28;20057;-94
2021/04/14 00:14:00;;;;;;;3.53;2.00;;;;;;;7.20;100.00;92800.47;5025489;28;19928;-93
2021/04/14 00:16:26;;;;;;;;;;;;;;;7.16;100.00;92811.25;5020675;28;20054;-94
2021/04/14 00:18:53;;;;;;;2.95;1.92;;;;;;;6.99;100.00;92787.91;5001289;28;20012;-95
2021/04/14 00:21:22;;;;;;;5.82;2.00;;;;;;;7.19;100.00;92814.19;5008359;28;20049;-95
2021/04/14 00:23:54;;;;;;;5.50;2.80;;;;;;;7.32;100.00;92822.84;5007396;28;20454;-95
2021/04/14 00:26:23;;;;;;;5.38;2.55;;;;;;;7.43;100.00;92835.00;5003016;28;20053;-95
2021/04/14 00:28:50;;;;;;;4.32;2.15;;;;;;;7.42;100.00;92822.44;4997279;28;20053;-95
2021/04/14 00:31:20;;;;;;;7.45;3.20;;;;;;;7.47;100.00;92822.63;5002584;28;20061;-95
2021/04/14 00:34:27;;;;;;;7.60;4.03;;;;;;;7.59;100.00;92835.59;4999973;28;20110;-96
2021/04/14 00:36:54;;;;;;;3.80;2.25;;;;;;;7.64;100.00;92840.09;4953564;28;20046;-96
2021/04/14 00:39:25;;;;;;;6.43;2.83;;;;;;;7.31;100.00;92791.38;5009663;28;20050;-95
2021/04/14 00:41:53;;;;;;;3.30;1.88;;;;;;;7.56;100.00;92810.41;5007520;28;20509;-96
2021/04/14 00:44:21;;;;;;;4.40;2.45;;;;;;;7.05;100.00;92736.81;5007955;28;20039;-96
2021/04/14 00:46:50;;;;;;;4.07;2.50;;;;;;;7.72;100.00;92848.31;5012146;28;20088;-96
2021/04/14 00:49:17;;;;;;;5.25;2.60;;;;;;;7.18;100.00;92773.53;5008765;28;20434;-95
2021/04/14 00:51:44;;;;;;;3.55;2.10;;;;;;;7.55;100.00;92819.84;5002469;28;20142;-95
2021/04/14 00:54:12;;;;;;;9.82;2.80;;;;;;;7.81;100.00;92858.31;4992273;28;20173;-95
2021/04/14 00:56:39;;;;;;;7.68;2.22;;;;;;;7.81;100.00;92861.66;4998607;28;20050;-96
2021/04/14 00:59:05;;;;;;;5.38;2.60;;;;;;;7.83;100.00;92864.81;4998078;28;20053;-95
2021/04/14 01:01:32;;;;;;;6.60;2.38;;;;;;;7.82;100.00;92872.69;4997176;28;20042;-95
2021/04/14 01:03:59;;;;;;;3.63;1.95;;;;;;;7.73;100.00;92875.44;4993591;28;20070;-93
2021/04/14 01:06:27;;;;;;;;;;;;;;;7.61;100.00;92879.59;4996089;28;20051;-96
2021/04/14 01:08:54;;;;;;;1.42;0.77;;;;;;;7.44;100.00;92885.13;4995880;28;19921;-95
2021/04/14 01:11:23;;;;;;;1.80;0.80;;;;;;;7.28;100.00;92882.97;4999743;28;20053;-88
2021/04/14 01:13:51;;;;;;;0.80;0.68;;;;;;;7.22;100.00;92892.19;4998054;28;20037;-93
2021/04/14 01:16:17;;;;;;;1.35;0.70;;;;;;;6.93;100.00;92866.88;4994716;28;20124;-94
2021/04/14 01:18:43;;;;;;;1.38;0.77;;;;;;;7.03;100.00;92878.47;4997284;28;20042;-90
2021/04/14 01:21:12;;;;;;;5.07;1.27;;;;;;;6.85;100.00;92886.69;4993186;28;20058;-91
2021/04/14 01:23:40;;;;;;;3.92;1.55;;;;;;;6.81;100.00;92889.63;4992260;28;20051;-94
2021/04/14 01:26:07;;;;;;;5.60;2.30;;;;;;;6.82;100.00;92901.41;4995105;28;20051;-96
2021/04/14 01:28:37;;;;;;;3.97;1.27;;;;;;;6.79;100.00;92901.81;4994098;28;20044;-96
2021/04/14 01:31:05;;;;;;;2.70;1.15;;;;;;;6.71;100.00;92883.34;5000309;28;20096;-96
2021/04/14 01:33:34;;;;;;;3.22;1.33;;;;;;;6.73;100.00;92874.50;4999974;28;20074;-95
2021/04/14 01:36:03;;;;;;;3.20;1.15;;;;;;;6.71;100.00;92862.91;5001103;28;20050;-93
2021/04/14 01:38:30;;;;;;;2.03;1.02;;;;;;;6.60;100.00;92831.06;4991305;28;20130;-91
2021/04/14 01:40:57;;;;;;;0.65;0.50;;;;;;;6.51;100.00;92843.22;4996615;28;20057;-95
2021/04/14 01:43:24;;;;;;;0.77;0.50;;;;;;;6.54;100.00;92850.50;4993809;28;20407;-96
2021/04/14 01:45:50;;;;;;;1.45;0.60;;;;;;;6.54;100.00;92843.63;4991775;28;20046;-95
2021/04/14 01:48:17;;;;;;;0.60;0.43;;;;;;;6.58;100.00;92848.34;4994350;28;20551;-95
2021/04/14 01:50:44;;;;;;;1.05;0.50;;;;;;;6.53;100.00;92834.41;4995184;28;20055;-95
2021/04/14 01:53:11;;;;;;;;;;;;;;;6.62;100.00;92829.13;4995130;28;20498;-95
2021/04/14 01:55:38;;;;;;;0.98;0.50;;;;;;;6.52;100.00;92827.72;4994667;28;20298;-94
2021/04/14 01:58:08;;;;;;;1.35;0.40;;;;;;;6.35;100.00;92801.78;4994796;28;20462;-95
2021/04/14 02:00:40;;;;;;;0.63;0.50;;;;;;;6.45;100.00;92815.94;4994495;28;20046;-94
2021/04/14 02:03:06;;;;;;;0.60;0.40;;;;;;;6.38;100.00;92814.16;4994677;28;20503;-93
2021/04/14 02:05:33;;;;;;;;;;;;;;;6.31;100.00;92818.47;4995074;28;20050;-94
2021/04/14 02:08:00;;;;;;;0.80;0.40;;;;;;;5.94;100.00;92767.75;4994722;28;19925;-95
2021/04/14 02:10:29;;;;;;;0.52;0.30;;;;;;;6.19;100.00;92808.03;4994626;28;20068;-94
2021/04/14 02:12:56;;;;;;;0.90;0.50;;;;;;;6.12;100.00;92797.81;4994018;28;20046;-94
2021/04/14 02:15:28;;;;;;;0.40;0.30;;;;;;;6.10;100.00;92814.28;4994381;28;20050;-94
2021/04/14 02:17:54;;;;;;;0.93;0.30;;;;;;;6.13;100.00;92803.72;4994275;28;20050;-93
2021/04/14 02:20:21;;;;;;;0.32;0.30;;;;;;;5.65;100.00;92740.78;4994422;28;20050;-94
2021/04/14 02:22:47;;;;;;;0.95;0.60;;;;;;;5.87;100.00;92772.00;4994012;28;20133;-94
2021/04/14 02:25:16;;;;;;;0.50;0.32;;;;;;;6.00;100.00;92805.22;4993987;28;20065;-93
2021/04/14 02:27:42;;;;;;;0.50;0.30;;;;;;;5.90;100.00;92789.50;4994140;28;20054;-93
2021/04/14 02:30:12;;;;;;;1.08;0.30;;;;;;;5.96;100.00;92805.78;4994247;28;20528;-93
2021/04/14 02:32:39;;;;;;;0.73;0.40;;;;;;;5.80;100.00;92784.75;4994023;28;20624;-93
2021/04/14 02:35:06;;;;;;;0.52;0.47;;;;;;;5.86;100.00;92801.84;4993932;28;20430;-93
2021/04/14 02:37:32;;;;;;;0.70;0.50;;;;;;;5.78;100.00;92796.88;4993723;28;20046;-95
2021/04/14 02:39:58;;;;;;;;;;;;;;;5.76;100.00;92796.31;4994162;28;20490;-92
2021/04/14 02:42:25;;;;;;;0.50;0.50;;;;;;;5.67;100.00;92795.69;4993694;28;20401;-93
2021/04/14 02:44:50;;;;;;;;;;;;;;;5.68;100.00;92793.91;4994288;28;20046;-92
2021/04/14 02:47:17;;;;;;;1.10;0.60;;;;;;;5.68;100.00;92788.81;4994225;28;19922;-92
2021/04/14 02:49:44;;;;;;;0.47;0.35;;;;;;;5.67;100.00;92785.47;4994053;28;20101;-93
2021/04/14 02:52:10;;;;;;;1.17;0.88;;;;;;;5.68;100.00;92794.69;4994184;28;20050;-91
2021/04/14 02:54:36;;;;;;;;;;;;;;;5.71;100.00;92785.88;4994294;28;20081;-92
2021/04/14 02:57:03;;;;;;;1.17;0.68;;;;;;;5.71;100.00;92790.97;4994307;28;19928;-92
2021/04/14 02:59:29;;;;;;;1.20;0.75;;;;;;;5.65;100.00;92776.47;4993899;28;20053;-93
2021/04/14 03:01:55;;;;;;;;;;;;;;;5.70;100.00;92781.78;4994770;28;20078;-92
2021/04/14 03:04:22;;;;;;;2.38;1.27;;;;;;;5.66;100.00;92785.66;4994292;28;19921;-93
2021/04/14 03:06:48;;;;;;;;;;;;;;;5.66;100.00;92786.47;4994528;28;20058;-92
2021/04/14 03:09:15;;;;;;;3.83;1.80;;;;;;;5.51;100.00;92773.84;4993828;28;20267;-92
2021/04/14 03:11:41;;;;;;;;;;;;;;;5.57;100.00;92780.75;4994398;28;20054;-92
2021/04/14 03:14:07;;;;;;;1.45;0.90;;;;;;;5.52;100.00;92785.63;4993904;28;20271;-92
2021/04/14 03:16:33;;;;;;;;;;;;;;;5.56;100.00;92786.78;4994473;28;20145;-92
2021/04/14 03:18:59;;;;;;;1.90;1.02;;;;;;;5.50;100.00;92792.66;4993915;28;20408;-92
2021/04/14 03:21:25;;;;;;;;;;;;;;;5.49;100.00;92803.81;4994386;28;20050;-92
2021/04/14 03:23:53;;;;;;;1.73;1.08;;;;;;;5.41;100.00;92793.78;4993631;28;19976;-94
2021/04/14 03:26:19;;;;;;;0.98;0.65;;;;;;;5.42;100.00;92793.59;4993290;28;20046;-92
2021/04/14 03:28:46;;;;;;;2.08;0.98;;;;;;;5.43;100.00;92787.53;4993932;28;20054;-93
2021/04/14 03:31:12;;;;;;;1.55;1.25;;;;;;;5.30;100.00;92772.97;4993278;28;20054;-92
2021/04/14 03:33:39;;;;;;;1.60;0.90;;;;;;;5.39;100.00;92783.00;4993561;28;20084;-92
2021/04/14 03:36:05;;;;;;;;;;;;;;;5.46;100.00;92791.47;4993555;28;20051;-92
2021/04/14 03:38:32;;;;;;;2.10;1.33;;;;;;;5.41;100.00;92793.78;4993051;28;19969;-94
2021/04/14 03:40:59;;;;;;;;;;;;;;;5.40;100.00;92795.53;4994026;28;20093;-93
2021/04/14 03:43:25;;;;;;;1.45;0.88;;;;;;;5.35;100.00;92796.13;4991804;28;19921;-93
2021/04/14 03:45:56;;;;;;;1.77;1.05;;;;;;;5.36;100.00;92786.69;4993192;28;20584;-93
2021/04/14 03:48:22;;;;;;;1.58;1.15;;;;;;;5.37;100.00;92783.16;4993219;28;20047;-92
2021/04/14 03:50:49;;;;;;;;;;;;;;;5.32;100.00;92786.28;4993795;28;20042;-92
2021/04/14 03:53:23;;;;;;;2.97;1.20;;;;;;;5.12;100.00;92767.56;4993300;28;19976;-92
2021/04/14 03:55:53;;;;;;;2.83;1.83;;;;;;;5.22;100.00;92790.94;4993531;28;20069;-92
2021/04/14 03:58:20;;;;;;;2.45;1.70;;;;;;;5.22;100.00;92785.84;4993775;28;20046;-92
2021/04/14 04:00:47;;;;;;;1.75;1.02;;;;;;;5.20;100.00;92786.00;4993654;28;20046;-92
2021/04/14 04:03:13;;;;;;;2.70;1.58;;;;;;;5.18;100.00;92790.53;4993083;28;20050;-92
2021/04/14 04:05:39;;;;;;;1.77;1.10;;;;;;;5.06;100.00;92761.47;4992920;28;20061;-93
2021/04/14 04:08:06;;;;;;;2.00;0.93;;;;;;;5.18;100.00;92787.97;4993033;28;20053;-93
2021/04/14 04:10:32;;;;;;;2.78;1.83;;;;;;;5.19;100.00;92793.88;4992451;28;20051;-92
2021/04/14 04:12:58;;;;;;;;;;;;;;;5.18;100.00;92794.81;4993268;28;20092;-93
2021/04/14 04:15:26;;;;;;;2.10;1.15;;;;;;;5.16;100.00;92795.03;4992650;28;20382;-93
2021/04/14 04:17:52;;;;;;;2.28;1.60;;;;;;;5.21;100.00;92795.25;4992826;28;20046;-93
2021/04/14 04:20:18;;;;;;;;;;;;;;;5.26;100.00;92796.44;4993403;28;20054;-93
2021/04/14 04:22:44;;;;;;;4.28;1.63;;;;;;;5.05;100.00;92767.53;4992669;28;19922;-92
2021/04/14 04:25:12;;;;;;;3.13;1.63;;;;;;;5.32;100.00;92791.38;4992917;28;20133;-92
2021/04/14 04:27:39;;;;;;;2.75;1.50;;;;;;;5.40;100.00;92798.09;4993236;28;20042;-93
2021/04/14 04:30:07;;;;;;;2.63;1.85;;;;;;;5.35;100.00;92780.03;4992428;28;20392;-92
2021/04/14 04:32:34;;;;;;;0.80;0.63;;;;;;;5.47;100.00;92793.81;4992635;28;20065;-93
2021/04/14 04:35:01;;;;;;;5.95;1.23;;;;;;;5.50;100.00;92802.84;4992840;28;20418;-93
2021/04/14 04:37:27;;;;;;;2.05;1.50;;;;;;;5.56;100.00;92796.22;4993471;28;20467;-92
2021/04/14 04:39:54;;;;;;;;;;;;;;;5.61;100.00;92791.34;4994038;28;20053;-92
2021/04/14 04:42:20;;;;;;;1.80;1.27;;;;;;;5.58;100.00;92794.25;4993865;28;20345;-91
2021/04/14 04:44:46;;;;;;;;;;;;;;;5.59;100.00;92795.81;4992909;28;20387;-93
2021/04/14 04:47:13;;;;;;;2.97;0.93;;;;;;;5.55;100.00;92805.59;4992276;28;19930;-92
2021/04/14 04:49:39;;;;;;;;;;;;;;;5.58;100.00;92815.44;4992940;28;20050;-94
2021/04/14 04:52:06;;;;;;;1.05;0.70;;;;;;;5.65;100.00;92817.22;4991673;28;19922;-93
2021/04/14 04:54:33;;;;;;;1.13;0.80;;;;;;;5.77;100.00;92817.47;4991850;28;20054;-93
2021/04/14 04:57:00;;;;;;;5.10;2.58;;;;;;;5.77;100.00;92823.34;4991564;28;20046;-93
2021/04/14 04:59:26;;;;;;;8.43;3.63;;;;;;;5.83;100.00;92819.28;4991796;28;20047;-92
2021/04/14 05:01:53;;;;;;;7.13;3.08;;;;;;;5.85;100.00;92825.75;4991617;28;20058;-94
2021/04/14 05:04:20;;;;;;;17.70;3.20;;;;;;;5.95;100.00;92822.84;4991672;28;20069;-93
2021/04/14 05:06:47;;;;;;;7.15;3.45;;;;;;;5.92;100.00;92802.06;4991935;28;20055;-94
2021/04/14 05:09:14;;;;;;;5.60;2.50;;;;;;;6.08;100.00;92821.34;4991991;28;20051;-93
2021/04/14 05:11:40;;;;;;;8.40;3.03;;;;;;;5.98;100.00;92801.28;4992062;28;20046;-94
2021/04/14 05:14:07;;;;;;;5.32;3.28;;;;;;;6.32;100.00;92830.25;4990144;28;20113;-93
2021/04/14 05:16:33;;;;;;;;;;;;;;;6.40;100.00;92830.06;4992338;28;20060;-93
2021/04/14 05:18:59;;;;;;;5.90;3.53;;;;;;;6.40;100.00;92816.53;4993306;28;19928;-94
2021/04/14 05:21:25;;;;;;;;;;;;;;;6.43;100.00;92823.00;4994240;28;20046;-93
2021/04/14 05:23:53;;;;;;;6.43;3.13;;;;;;;6.41;100.00;92818.09;4995579;28;19922;-94
2021/04/14 05:26:20;;;;;;;6.07;4.07;;;;;;;6.33;100.00;92823.38;4995431;28;20537;-94
2021/04/14 05:28:46;;;;;;;8.35;4.07;;;;;;;6.48;100.00;92830.88;4995344;28;20046;-90
2021/04/14 05:31:13;;;;;;;8.05;4.38;;;;;;;6.50;100.00;92832.25;4995338;28;20419;-89
2021/04/14 05:33:40;;;;;;;3.83;2.67;;;;;;;6.46;100.00;92830.25;4995211;28;20054;-94
2021/04/14 05:36:07;;;;;;;8.70;3.78;;;;;;;6.37;100.00;92829.66;4995105;28;20506;-94
2021/04/14 05:38:34;;;;;;;12.95;3.67;;;;;;;6.43;100.00;92835.78;4995558;28;20144;-93
2021/04/14 05:41:00;;;;;;;;;;;;;;;6.62;100.00;92831.69;4996125;28;20065;-93
2021/04/14 05:43:29;;;;;;;4.25;2.28;;;;;;;6.59;100.00;92835.41;4996247;28;19928;-94
2021/04/14 05:45:57;;;;;;;6.50;3.60;;;;;;;6.86;100.00;92829.53;4995623;28;20058;-93
2021/04/14 05:48:24;;;;;;;6.97;3.30;;;;;;;7.26;100.00;92829.53;4995226;28;20046;-90
2021/04/14 05:50:51;;;;;;;12.40;5.60;;;;;;;7.35;100.00;92824.97;4995235;28;20050;-93
2021/04/14 05:53:19;;;;;;;8.90;4.60;;;;;;;7.67;100.00;92844.78;4995330;28;20197;-87
2021/04/14 05:55:45;;;;;;;6.75;2.95;;;;;;;7.66;100.00;92845.78;4994667;28;20054;-89
2021/04/14 05:58:12;;;;;;;;;;;;;;;7.64;100.00;92845.19;4995034;28;20065;-93
2021/04/14 06:00:38;;;;;;;3.28;2.00;;;;;;;7.06;100.00;92840.56;4996186;28;19969;-93
2021/04/14 06:03:05;;;;;;;3.92;2.33;;;;;;;7.12;100.00;92854.28;4995106;28;20491;-91
2021/04/14 06:05:31;;;;;;;4.07;2.30;;;;;;;7.15;100.00;92856.47;4994510;28;20054;-92
2021/04/14 06:07:58;;;;;;;;;;;;;;;7.12;100.00;92853.53;4995318;28;20076;-93
2021/04/14 06:10:25;;;;;;;6.10;3.15;;;;;;;6.90;100.00;92861.38;4994088;28;19922;-92
2021/04/14 06:12:53;;;;;;;3.67;2.20;;;;;;;6.74;100.00;92854.84;4993959;28;20046;-89
2021/04/14 06:15:22;;;;;;;6.00;2.20;;;;;;;6.74;100.00;92858.19;4994011;28;20082;-92
2021/04/14 06:17:48;;;;;;;4.00;1.88;;;;;;;6.54;100.00;92860.72;4994635;28;20046;-90
2021/04/14 06:20:18;;;;;;;3.78;2.33;;;;;;;6.40;100.00;92873.44;4994130;28;20406;-90
2021/04/14 06:22:44;;;;;;;2.85;1.15;;;;;;;6.35;100.00;92873.22;4993998;28;20124;-87
2021/04/14 06:25:13;;;;;;;;;;;;;;;6.15;100.00;92875.69;4994268;28;20051;-90
2021/04/14 06:27:45;;;;;;;2.10;1.45;;;;;;;5.83;100.00;92888.09;4994159;28;19922;-91
2021/04/14 06:30:14;;;;;;;2.45;1.38;;;;;;;5.89;100.00;92877.16;4994095;28;20077;-90
2021/04/14 06:32:41;;;;;;;2.00;1.38;;;;;;;5.96;100.00;92887.34;4993315;28;20411;-92
2021/04/14 06:35:09;;;;;;;2.35;1.60;;;;;;;5.88;100.00;92891.63;4993462;28;20058;-88
2021/04/14 06:37:36;;;;;;;2.42;1.27;;;;;;;5.93;100.00;92897.94;4993526;28;20046;-90
2021/04/14 06:40:22;;;;;;;2.28;1.27;;;;;;;5.80;100.00;92893.56;4993589;28;20046;-89
2021/04/14 06:42:58;;;;;;;1.77;0.90;;;;;;;5.75;100.00;92896.69;4993814;28;20414;-88
2021/04/14 06:45:27;;;;;;;2.28;1.15;;;;;;;5.70;100.00;92902.31;4993667;28;20077;-87
2021/04/14 06:48:10;;;;;;;3.70;1.63;;;;;;;5.68;100.00;92908.56;4993451;28;20050;-91
2021/04/14 06:50:40;;;;;;;2.33;1.63;;;;;;;5.59;100.00;92911.28;4993661;28;20057;-87
2021/04/14 06:53:28;;;;;;;2.38;1.77;;;;;;;5.34;100.00;92916.78;4993402;28;20054;-89
2021/04/14 06:55:58;;;;;;;1.98;1.13;;;;;;;5.27;100.00;92921.03;4993361;28;20057;-89
2021/04/14 06:58:34;;;;;;;2.45;0.90;;;;;;;5.37;100.00;92912.28;4993321;28;20038;-91
2021/04/14 07:01:03;;;;;;;2.75;0.90;;;;;;;5.51;100.00;92903.75;4993773;28;20093;-89
2021/04/14 07:03:40;;;;;;;2.22;1.20;;;;;;;5.54;100.00;92892.41;4993470;28;20046;-91
2021/04/14 07:06:09;;;;;;;2.10;1.23;;;;;;;5.53;100.00;92884.00;4993293;28;20085;-92
2021/04/14 07:08:41;;;;;;;1.48;0.80;;;;;;;5.62;100.00;92897.38;4993173;28;20810;-91
2021/04/14 07:11:16;;;;;;;2.17;0.98;;;;;;;5.95;100.00;92909.53;4993380;28;20053;-88
2021/04/14 07:13:46;;;;;;;1.75;1.15;;;;;;;5.95;100.00;92909.53;4993178;28;20054;-90
2021/04/14 07:16:29;;;;;;;3.13;1.35;;;;;;;5.99;100.00;92917.59;4993218;28;20054;-91
2021/04/14 07:19:01;;;;;;;1.85;1.20;;;;;;;5.88;100.00;92929.09;4993003;28;20053;-89
2021/04/14 07:21:35;;;;;;;1.88;1.38;;;;;;;5.85;100.00;92927.72;4992754;28;20054;-89
2021/04/14 07:24:05;;;;;;;3.53;2.15;;;;;;;5.82;100.00;92933.19;4992983;28;20053;-87
2021/04/14 07:26:41;;;;;;;2.35;1.50;;;;;;;5.83;100.00;92929.66;4992834;28;20094;-91
2021/04/14 07:29:24;;;;;;;2.65;1.58;;;;;;;5.47;100.00;92931.38;4992768;28;20495;-91
2021/04/14 07:31:57;;;;;;;1.65;1.10;;;;;;;5.16;100.00;92932.50;4992709;28;20549;-91
2021/04/14 07:34:51;;;;;;;1.80;1.27;;;;;;;5.24;100.00;92929.06;4992727;28;20058;-88
2021/04/14 07:37:28;;;;;;;2.53;1.52;;;;;;;5.38;100.00;92941.88;4992608;28;20414;-89
2021/04/14 07:40:06;;;;;;;1.08;0.80;;;;;;;5.43;100.00;92955.66;4992953;28;20050;-91
2021/04/14 07:42:41;;;;;;;1.60;1.33;;;;;;;5.09;100.00;92934.19;4992656;28;20046;-92
2021/04/14 07:45:17;;;;;;;1.23;0.60;;;;;;;4.99;100.00;92942.16;4992642;28;20530;-87
2021/04/14 07:47:48;;;;;;;1.05;0.60;;;;;;;5.13;100.00;92943.06;4992623;28;20426;-91
2021/04/14 07:50:16;;;;;;;2.38;1.15;;;;;;;5.20;100.00;92954.06;4992444;28;20498;-88
2021/04/14 07:52:42;;;;;;;1.33;1.10;;;;;;;5.09;100.00;92949.47;4992291;28;20061;-89
2021/04/14 07:55:28;;;;;;;2.17;0.90;;;;;;;5.03;100.00;92940.03;4992190;28;20050;-88
2021/04/14 07:58:03;;;;;;;1.52;1.05;;;;;;;5.20;100.00;92946.44;4992270;28;20073;-87
2021/04/14 08:00:36;;;;;;;1.27;0.98;;;;;;;5.22;100.00;92928.44;4992237;28;20054;-88
2021/04/14 08:03:18;;;;;;;2.30;0.77;;;;;;;5.47;100.00;92946.66;4991769;28;20522;-90
2021/04/14 08:05:45;;;;;;;4.72;1.40;;;;;;;5.38;100.00;92935.03;4990543;28;20047;-91
2021/04/14 08:08:18;;;;;;;1.38;0.70;;;;;;;5.46;100.00;92946.88;4991553;28;20046;-89
2021/04/14 08:10:56;;;;;;;1.55;1.00;;;;;;;5.57;100.00;92954.00;4992291;28;20049;-87
2021/04/14 08:13:26;;;;;;;1.25;0.60;;;;;;;5.55;100.00;92957.72;4991873;28;20095;-84
2021/04/14 08:15:53;;;;;;;0.90;0.38;;;;;;;5.54;100.00;92944.16;4992187;28;20125;-88
2021/04/14 08:18:24;;;;;;;1.38;0.70;;;;;;;5.43;100.00;92927.63;4992048;28;20073;-87
2021/04/14 08:21:09;;;;;;;0.95;0.80;;;;;;;5.67;100.00;92956.22;4992449;28;20045;-88
2021/04/14 08:23:36;;;;;;;3.40;0.95;;;;;;;5.77;100.00;92943.16;4991849;28;20544;-87
2021/04/14 08:26:15;;;;;;;1.42;0.80;;;;;;;6.31;100.00;92958.78;4991925;28;20043;-90
2021/04/14 08:28:45;;;;;;;1.70;1.25;;;;;;;6.51;100.00;92965.72;4991190;28;20042;-91
2021/04/14 08:31:34;;;;;;;1.10;0.65;;;;;;;6.72;100.00;92966.59;4991820;28;20087;-90
2021/04/14 08:34:11;;;;;;;4.18;0.77;;;;;;;6.62;99.67;92949.84;4991875;28;20050;-92
2021/04/14 08:36:43;;;;;;;1.15;0.80;;;;;;;6.57;97.88;92949.63;4991986;28;20049;-89
2021/04/14 08:39:12;;;;;;;1.75;0.90;;;;;;;6.68;98.47;92951.63;4991838;28;20479;-88
2021/04/14 08:41:38;;;;;;;0.70;0.55;;;;;;;6.72;96.33;92964.03;4991715;28;20077;-87
2021/04/14 08:44:11;;;;;;;2.00;0.50;;;;;;;6.45;97.97;92951.97;4991647;28;20042;-90
2021/04/14 08:46:38;;;;;;;1.35;0.77;;;;;;;6.62;99.83;92952.41;4991690;28;20495;-90
2021/04/14 08:49:07;;;;;;;1.67;0.93;;;;;;;6.69;100.00;92952.44;4991592;28;20053;-91
2021/04/14 08:51:37;;;;;;;1.45;0.85;;;;;;;6.91;97.54;92962.50;4991583;28;20395;-89
2021/04/14 08:54:05;;;;;;;1.10;0.80;;;;;;;6.99;96.59;92952.09;4991679;28;20154;-90
2021/04/14 08:56:32;;;;;;;0.63;0.43;;;;;;;6.61;96.08;92955.94;4991202;28;20038;-90
2021/04/14 08:58:58;;;;;;;;;;;;;;;6.33;99.27;92948.34;4992189;28;20043;-87
2021/04/14 09:01:29;;;;;;;0.73;0.50;;;;;;;6.43;99.42;92950.59;4991337;28;20282;-89
2021/04/14 09:03:56;;;;;;;1.05;0.57;;;;;;;6.54;97.90;92942.38;4991651;28;20129;-90
2021/04/14 09:06:23;;;;;;;1.23;0.60;;;;;;;6.54;97.40;92943.16;4991560;28;20042;-87
2021/04/14 09:08:52;;;;;;;1.00;0.70;;;;;;;6.52;98.05;92941.75;4991360;28;20082;-86
2021/04/14 09:11:24;;;;;;;1.13;0.50;;;;;;;6.38;94.91;92949.38;4991448;28;20069;-89
2021/04/14 09:14:00;;;;;;;1.63;0.75;;;;;;;6.34;99.03;92958.38;4991263;28;20031;-91
2021/04/14 09:16:38;;;;;;;0.93;0.63;;;;;;;6.52;99.28;92944.31;4991437;28;20073;-89
2021/04/14 09:19:09;;;;;;;1.13;0.75;;;;;;;6.53;96.38;92956.88;4991250;28;20065;-87
2021/04/14 09:21:44;;;;;;;1.08;0.70;;;;;;;6.61;96.32;92945.72;4991149;28;20097;-91
2021/04/14 09:24:22;;;;;;;1.60;0.93;;;;;;;6.80;95.56;92938.31;4991113;28;20121;-90
2021/04/14 09:26:56;;;;;;;1.48;0.80;;;;;;;7.05;95.51;92958.22;4991192;28;20062;-86
2021/04/14 09:29:25;;;;;;;1.45;0.80;;;;;;;6.89;95.94;92923.63;4991605;28;20046;-90
2021/04/14 09:31:55;;;;;;;1.42;0.75;;;;;;;6.71;95.42;92942.81;4991308;28;20058;-89
2021/04/14 09:34:33;;;;;;;1.05;0.50;;;;;;;6.82;94.05;92947.34;4991094;28;20066;-88
2021/04/14 09:37:03;;;;;;;1.23;0.70;;;;;;;6.94;93.60;92944.25;4990950;28;20081;-91
2021/04/14 09:39:33;;;;;;;1.20;0.80;;;;;;;6.73;91.52;92947.72;4991588;28;20046;-91
2021/04/14 09:42:01;;;;;;;2.95;1.35;;;;;;;6.63;97.38;92943.00;4991268;28;20073;-90
2021/04/14 09:44:38;;;;;;;1.45;0.90;;;;;;;7.09;95.13;92938.97;4991027;28;20060;-90
2021/04/14 09:47:33;;;;;;;1.35;0.68;;;;;;;7.62;93.14;92940.75;4991008;28;20451;-89
2021/04/14 09:50:02;;;;;;;1.02;0.60;;;;;;;7.70;89.93;92939.78;4989480;28;20498;-90
2021/04/14 09:52:32;;;;;;;0.85;0.57;;;;;;;7.88;90.97;92933.25;4991065;28;20487;-88
2021/04/14 09:55:08;;;;;;;0.93;0.50;;;;;;;7.81;91.98;92912.00;4990828;28;20526;-89
2021/04/14 09:57:39;;;;;;;2.33;1.70;;;;;;;8.25;92.66;92912.31;4990850;28;20510;-85
2021/04/14 10:00:13;;;;;;;1.77;1.00;;;;;;;8.75;89.59;92903.25;4991075;28;20051;-86
2021/04/14 10:02:40;;;;;;;2.15;1.05;;;;;;;8.99;87.56;92918.88;4990714;28;20042;-88
2021/04/14 10:05:08;;;;;;;1.25;0.57;;;;;;;8.54;88.98;92895.69;4990712;28;20522;-86
2021/04/14 10:07:37;;;;;;;1.38;0.50;;;;;;;8.67;86.28;92904.28;4990775;28;20057;-87
2021/04/14 10:10:07;;;;;;;1.73;0.77;;;;;;;8.43;83.82;92909.09;4994005;28;20050;-91
2021/04/14 10:12:34;;;;;;;1.27;0.80;;;;;;;9.07;86.47;92896.34;4994480;28;20061;-89
2021/04/14 10:15:04;;;;;;;1.20;0.90;;;;;;;9.73;86.36;92878.06;4994297;28;20055;-88
2021/04/14 10:17:32;;;;;;;1.15;0.80;;;;;;;10.44;83.05;92894.91;4994200;28;20043;-87
2021/04/14 10:20:09;;;;;;;0.80;0.50;;;;;;;10.62;78.33;92885.59;4994101;28;20113;-90
2021/04/14 10:22:40;;;;;;;3.40;1.20;;;;;;;10.85;79.10;92890.06;4993829;28;20570;-88
2021/04/14 10:25:15;;;;;;;2.65;0.82;;;;;;;10.84;78.35;92873.06;4993978;28;20054;-84
2021/04/14 10:27:42;;;;;;;1.05;0.60;;;;;;;11.07;81.40;92877.47;4994069;28;20046;-87
2021/04/14 10:30:17;;;;;;;7.45;3.13;;;;;;;10.31;77.07;92879.66;4994111;28;20042;-92
2021/04/14 10:32:44;;;;;;;2.83;1.13;;;;;;;9.48;80.40;92875.53;4993336;28;20062;-89
2021/04/14 10:35:13;;;;;;;1.83;0.98;;;;;;;9.26;82.92;92878.47;4993654;28;20449;-90
2021/04/14 10:37:45;;;;;;;1.05;0.70;;;;;;;8.52;86.24;92884.84;4989894;28;20510;-87
2021/04/14 10:40:19;;;;;;;0.80;0.32;;;;;;;8.40;87.83;92878.78;4993446;28;20050;-88
2021/04/14 10:42:47;;;;;;;33.72;10.35;;;;;;;8.55;87.59;92883.66;4993692;28;20442;-87
2021/04/14 10:45:18;;;;;;;44.25;11.90;;;;;;;8.09;87.05;92893.06;4993776;28;20116;-88
2021/04/14 10:47:45;;;;;;;2.67;1.38;;;;;;;8.71;89.72;92871.38;4993618;28;20054;-88
2021/04/14 10:50:20;;;;;;;11.07;3.97;;;;;;;8.65;86.16;92878.09;4993699;28;20050;-89
2021/04/14 10:52:51;;;;;;;2.70;1.35;;;;;;;9.25;84.07;92882.03;4993595;28;20400;-93
2021/04/14 10:55:21;;;;;;;1.42;1.02;;;;;;;9.39;84.27;92871.69;4993303;28;20057;-87
2021/04/14 10:57:55;;;;;;;2.15;1.35;;;;;;;9.41;84.59;92862.78;4993318;28;20050;-88
2021/04/14 11:00:29;;;;;;;1.67;0.75;;;;;;;8.81;84.71;92874.25;4993703;28;20104;-88
2021/04/14 11:02:59;;;;;;;3.88;1.30;;;;;;;8.77;84.77;92875.66;4993211;28;20419;-87
2021/04/14 11:05:26;;;;;;;1.98;1.30;;;;;;;9.00;84.48;92882.00;4993264;28;20116;-88
2021/04/14 11:07:54;;;;;;;1.45;0.80;;;;;;;9.42;82.82;92879.75;4993021;28;20406;-88
2021/04/14 11:10:24;;;;;;;1.33;0.70;;;;;;;9.88;81.39;92879.50;4993010;28;20054;-89
2021/04/14 11:12:51;;;;;;;1.00;0.60;;;;;;;9.69;82.01;92874.38;4993457;28;20046;-92
2021/04/14 11:15:20;;;;;;;1.23;0.70;;;;;;;9.79;80.85;92876.44;4992937;28;20062;-88
2021/04/14 11:17:55;;;;;;;1.08;0.65;;;;;;;10.26;80.91;92877.72;4993121;28;20507;-87
2021/04/14 11:20:24;;;;;;;1.23;0.90;;;;;;;10.28;80.73;92879.06;4992674;28;20054;-89
2021/04/14 11:22:53;;;;;;;1.05;0.50;;;;;;;10.08;79.69;92889.56;4992852;28;20069;-88
2021/04/14 11:25:28;;;;;;;1.45;0.70;;;;;;;9.68;78.96;92865.09;4990998;28;20042;-91
2021/04/14 11:28:03;;;;;;;0.98;0.60;;;;;;;9.74;78.80;92882.22;4986982;28;20093;-88
2021/04/14 11:30:31;;;;;;;2.38;1.15;;;;;;;9.80;79.30;92878.00;4975595;28;20046;-89
2021/04/14 11:33:01;;;;;;;5.10;2.17;;;;;;;9.17;80.01;92887.44;5012568;28;20049;-94
2021/04/14 11:35:35;;;;;;;3.72;1.70;;;;;;;8.70;82.42;92878.25;5012359;28;20054;-89
2021/04/14 11:38:01;;;;;;;2.25;1.30;;;;;;;8.21;84.14;92881.22;5000488;28;20047;-91
2021/04/14 11:40:42;;;;;;;5.72;2.90;;;;;;;7.82;84.49;92890.59;4993133;28;20495;-92
2021/04/14 11:43:30;;;;;;;10.05;2.60;;;;;;;7.80;84.98;92895.91;4992566;28;20049;-94
2021/04/14 11:46:00;;;;;;;5.35;2.25;;;;;;;7.48;88.00;92895.75;4992873;28;20047;-93
2021/04/14 11:48:36;;;;;;;1.48;0.85;;;;;;;7.62;87.16;92887.09;4992494;28;20050;-91
2021/04/14 11:51:15;;;;;;;4.30;1.40;;;;;;;7.81;87.35;92883.88;4992413;28;20557;-92
2021/04/14 11:54:01;;;;;;;3.20;1.23;;;;;;;8.20;85.36;92889.09;4992566;28;20101;-89